Weather History for Kearney, NE

Change the Weather History Date:

Sunday, January 26, 2014

  Actual Average Record
Temperature  
Mean Temperature 33 °F 25 °F  
Max Temperature 55 °F 37 °F 69 °F (2002)
Min Temperature 10 °F 13 °F -19 °F (1950)
Degree Days  
Heating Degree Days 32 40  
Cooling Degree Days 0 0  
Moisture  
Dew Point 16 °F    
Average Humidity 48    
Maximum Humidity 66    
Minimum Humidity 30    
Precipitation  
Precipitation T in - 0.60 in (1902)
Sea Level Pressure  
Sea Level Pressure 29.85 in    
Wind  
Wind Speed 19 mph (NW)    
Max Wind Speed 39 mph    
Max Gust Speed 48 mph    
Visibility 10 miles    
Events      
T = Trace of Precipitation, MM = Missing Value Source: NWS Daily Summary

Daily Weather History Graph

Daily Weather History Graph

Search for Another Location

Airport:

Trip Planner

Search our weather history database for the weather conditions in past years. The results will help you decide how hot, cold, wet, or windy it might be!

Date:

Astronomy

Jan. 26, 2014 Rise Set
Actual Time 7:51 AM CST 5:46 PM CST
Civil Twilight 7:21 AM CST 6:15 PM CST
Nautical Twilight 6:48 AM CST 6:48 PM CST
Astronomical Twilight 6:16 AM CST 7:21 PM CST
Moon 3:30 AM CST (1/26) 1:37 PM CST (1/26)
Length of Visible Light 10h 53m
Length of Day
9h 55m
Waning Crescent, 23% of the Moon is Illuminated
Jan 26
Waning Crescent
Jan 30
New
Feb 6
First Quarter
Feb 14
Full
Feb 22
Last Quarter

Hourly Weather History & Observations

Time (CST) Temp. Windchill Dew Point Humidity Pressure Visibility Wind Dir Wind Speed Gust Speed Precip Events Conditions
12:15 AM 48.2 °F - 21.2 °F 34% 29.68 in 10.0 mi West 18.4 mph 24.2 mph N/A   Clear
12:35 AM 48.2 °F - 21.2 °F 34% 29.68 in 10.0 mi West 19.6 mph 26.5 mph N/A   Clear
12:55 AM 48.2 °F - 21.2 °F 34% 29.69 in 10.0 mi West 18.4 mph 24.2 mph N/A   Clear
1:15 AM 48.2 °F - 19.4 °F 32% 29.69 in 10.0 mi West 19.6 mph 25.3 mph N/A   Clear
1:35 AM 48.2 °F - 19.4 °F 32% 29.69 in 10.0 mi West 20.7 mph - N/A   Clear
1:55 AM 48.2 °F - 19.4 °F 32% 29.69 in 10.0 mi West 18.4 mph 24.2 mph N/A   Clear
2:15 AM 48.2 °F - 19.4 °F 32% 29.70 in 10.0 mi West 17.3 mph 23.0 mph N/A   Clear
2:35 AM 46.4 °F 39.8 °F 19.4 °F 34% 29.70 in 10.0 mi West 16.1 mph - N/A   Clear
2:55 AM 46.4 °F 40.1 °F 19.4 °F 34% 29.70 in 10.0 mi WNW 15.0 mph - N/A   Clear
3:15 AM 44.6 °F 37.8 °F 19.4 °F 37% 29.71 in 10.0 mi WNW 15.0 mph - N/A   Clear
3:35 AM 42.8 °F 36.2 °F 19.4 °F 39% 29.72 in 10.0 mi WNW 12.7 mph - N/A   Clear
3:55 AM 39.2 °F 32.5 °F 19.4 °F 45% 29.71 in 10.0 mi WNW 10.4 mph - N/A   Clear
4:15 AM 37.4 °F 29.8 °F 19.4 °F 48% 29.71 in 10.0 mi WNW 11.5 mph - N/A   Clear
4:35 AM 39.2 °F 32.0 °F 21.2 °F 49% 29.71 in 10.0 mi WNW 11.5 mph - N/A   Clear
4:55 AM 37.4 °F 29.8 °F 21.2 °F 52% 29.71 in 10.0 mi WNW 11.5 mph - N/A   Clear
5:15 AM 41.0 °F 32.2 °F 24.8 °F 53% 29.71 in 10.0 mi NW 18.4 mph - N/A   Clear
5:35 AM 41.0 °F 34.7 °F 24.8 °F 53% 29.71 in 10.0 mi NW 10.4 mph - N/A   Clear
5:55 AM 37.4 °F 29.8 °F 24.8 °F 60% 29.72 in 10.0 mi WNW 11.5 mph - N/A   Clear
6:15 AM 39.2 °F 31.6 °F 24.8 °F 56% 29.72 in 10.0 mi NW 12.7 mph - N/A   Clear
6:35 AM 39.2 °F 32.5 °F 24.8 °F 56% 29.73 in 10.0 mi WNW 10.4 mph - N/A   Clear
6:55 AM 37.4 °F 30.3 °F 26.6 °F 65% 29.74 in 10.0 mi NW 10.4 mph - N/A   Clear
7:15 AM 37.4 °F 30.8 °F 24.8 °F 60% 29.74 in 10.0 mi NW 9.2 mph - N/A   Clear
7:35 AM 35.6 °F 29.9 °F 24.8 °F 65% 29.74 in 10.0 mi NW 6.9 mph - N/A   Clear
7:55 AM 32.0 °F 25.6 °F 23.0 °F 69% 29.74 in 10.0 mi NW 6.9 mph - N/A   Clear
8:15 AM 33.8 °F 27.7 °F 24.8 °F 70% 29.74 in 10.0 mi WNW 6.9 mph - N/A   Clear
8:35 AM 33.8 °F 27.0 °F 24.8 °F 70% 29.74 in 10.0 mi WNW 8.1 mph - N/A   Clear
8:55 AM 37.4 °F 31.4 °F 26.6 °F 65% 29.74 in 10.0 mi WNW 8.1 mph - N/A   Clear
9:15 AM 41.0 °F 35.2 °F 26.6 °F 57% 29.74 in 10.0 mi WNW 9.2 mph - N/A   Clear
9:35 AM 42.8 °F 37.5 °F 26.6 °F 53% 29.74 in 10.0 mi WNW 9.2 mph - N/A   Clear
9:55 AM 44.6 °F 38.8 °F 26.6 °F 49% 29.74 in 10.0 mi West 11.5 mph - N/A   Clear
10:15 AM 44.6 °F 39.2 °F 26.6 °F 49% 29.73 in 10.0 mi WSW 10.4 mph - N/A   Clear
10:35 AM 44.6 °F 39.2 °F 26.6 °F 49% 29.73 in 10.0 mi SW 10.4 mph - N/A   Clear
10:55 AM 44.6 °F 39.2 °F 26.6 °F 49% 29.73 in 10.0 mi WSW 10.4 mph - N/A   Clear
11:15 AM 46.4 °F 40.7 °F 26.6 °F 46% 29.73 in 10.0 mi West 12.7 mph - N/A   Clear
11:35 AM 48.2 °F - 26.6 °F 43% 29.72 in 10.0 mi West 13.8 mph 21.9 mph N/A   Clear
11:55 AM 51.8 °F - 26.6 °F 38% 29.71 in 10.0 mi West 10.4 mph 19.6 mph N/A   Clear
12:15 PM 53.6 °F - 28.4 °F 38% 29.70 in 10.0 mi WSW 12.7 mph - N/A   Scattered Clouds
12:35 PM 53.6 °F - 26.6 °F 35% 29.69 in 10.0 mi West 17.3 mph 20.7 mph N/A   Mostly Cloudy
12:55 PM 53.6 °F - 26.6 °F 35% 29.69 in 10.0 mi WNW 13.8 mph 21.9 mph N/A   Overcast
1:15 PM 53.6 °F - 26.6 °F 35% 29.68 in 10.0 mi WNW 13.8 mph 21.9 mph N/A   Overcast
1:35 PM 55.4 °F - 26.6 °F 33% 29.67 in 10.0 mi WNW 20.7 mph 24.2 mph N/A   Mostly Cloudy
1:55 PM 55.4 °F - 24.8 °F 31% 29.67 in 10.0 mi NW 19.6 mph 29.9 mph N/A   Mostly Cloudy
2:15 PM 53.6 °F - 26.6 °F 35% 29.68 in 10.0 mi NW 19.6 mph 25.3 mph N/A   Mostly Cloudy
2:35 PM 53.6 °F - 24.8 °F 33% 29.69 in 10.0 mi NW 19.6 mph 27.6 mph N/A   Overcast
2:55 PM 53.6 °F - 24.8 °F 33% 29.70 in 10.0 mi NNW 26.5 mph 31.1 mph N/A   Overcast
3:15 PM 51.8 °F - 24.8 °F 35% 29.75 in 9.0 mi North 36.8 mph 44.9 mph N/A   Overcast
3:35 PM 39.2 °F 26.6 °F 21.2 °F 49% 29.80 in 9.0 mi North 34.5 mph 47.2 mph N/A   Overcast
3:55 PM 35.6 °F 21.0 °F 19.4 °F 52% 29.84 in 8.0 mi North 39.1 mph 48.3 mph N/A   Overcast
4:15 PM 30.2 °F 15.7 °F 24.8 °F 80% 29.88 in 1.5 mi North 27.6 mph 38.0 mph N/A   Overcast
4:35 PM 30.2 °F 15.4 °F 23.0 °F 75% 29.89 in 10.0 mi North 28.8 mph 36.8 mph N/A   Overcast
4:55 PM 30.2 °F 15.4 °F 17.6 °F 60% 29.91 in 10.0 mi North 28.8 mph 43.7 mph N/A   Overcast
5:15 PM 30.2 °F 14.9 °F 15.8 °F 55% 29.94 in 10.0 mi North 31.1 mph 36.8 mph N/A   Overcast
5:35 PM 28.4 °F 13.3 °F 10.4 °F 47% 29.96 in 10.0 mi NNW 27.6 mph 43.7 mph N/A   Overcast
5:55 PM 26.6 °F 11.4 °F 10.4 °F 51% 29.98 in 10.0 mi North 25.3 mph 38.0 mph N/A   Overcast
6:15 PM 26.6 °F 11.1 °F 8.6 °F 47% 30.00 in 10.0 mi North 26.5 mph 36.8 mph N/A   Overcast
6:35 PM 24.8 °F 7.1 °F 6.8 °F 46% 30.03 in 10.0 mi North 33.4 mph 43.7 mph N/A   Mostly Cloudy
6:55 PM 23.0 °F 4.4 °F 6.8 °F 50% 30.07 in 10.0 mi North 34.5 mph 41.4 mph N/A   Scattered Clouds
7:15 PM 21.2 °F 2.4 °F 1.4 °F 42% 30.10 in 10.0 mi North 32.2 mph 42.6 mph N/A   Overcast
7:35 PM 19.4 °F -0.0 °F -2.2 °F 39% 30.12 in 10.0 mi North 32.2 mph 43.7 mph N/A   Overcast
7:55 PM 19.4 °F 0.2 °F -5.8 °F 33% 30.14 in 10.0 mi North 31.1 mph 41.4 mph N/A   Overcast
8:15 PM 19.4 °F -0.8 °F -5.8 °F 33% 30.15 in 10.0 mi North 35.7 mph 43.7 mph N/A   Overcast
8:35 PM 17.6 °F -1.3 °F -5.8 °F 35% 30.16 in 10.0 mi North 27.6 mph 36.8 mph N/A   Mostly Cloudy
8:55 PM 15.8 °F -5.0 °F -7.6 °F 35% 30.17 in 10.0 mi North 32.2 mph 41.4 mph N/A   Scattered Clouds
9:15 PM 15.8 °F -4.4 °F -7.6 °F 35% 30.17 in 10.0 mi North 29.9 mph 40.3 mph N/A   Mostly Cloudy
9:35 PM 15.8 °F -3.4 °F -7.6 °F 35% 30.18 in 10.0 mi North 26.5 mph 35.7 mph N/A   Mostly Cloudy
9:55 PM 15.8 °F -2.3 °F -7.6 °F 35% 30.21 in 10.0 mi North 23.0 mph 29.9 mph N/A   Mostly Cloudy
10:15 PM 14.0 °F -3.4 °F -7.6 °F 38% 30.22 in 10.0 mi North 19.6 mph 28.8 mph N/A   Mostly Cloudy
10:35 PM 12.2 °F -6.3 °F -7.6 °F 41% 30.24 in 10.0 mi North 20.7 mph - N/A   Mostly Cloudy
10:55 PM 12.2 °F -7.1 °F -7.6 °F 41% 30.25 in 10.0 mi North 23.0 mph 32.2 mph N/A   Mostly Cloudy
11:15 PM 12.2 °F -6.3 °F -7.6 °F 41% 30.27 in 10.0 mi North 20.7 mph 27.6 mph N/A   Scattered Clouds
11:35 PM 10.4 °F -7.7 °F -7.6 °F 44% 30.28 in 10.0 mi North 18.4 mph 27.6 mph N/A   Clear
11:55 PM 10.4 °F -7.7 °F -5.8 °F 48% 30.30 in 10.0 mi North 18.4 mph 24.2 mph N/A   Partly Cloudy